Time;durP1;ratioP1;P1;durP2;ratioP2;P2;SDS_P1;SDS_P2;PMS_P1;PMS_P2;Temp;Humidity;BMP_temperature;BMP_pressure;BME280_temperature;BME280_humidity;BME280_pressure;Samples;Min_cycle;Max_cycle;Signal;HPM_P1;HPM_P2
2022/12/30 00:01:12;;;;;;;10.00;3.07;;;7.90;90.90;;;;;;5097332;28;20187;-89
2022/12/30 00:03:37;;;;;;;11.23;3.30;;;8.10;90.00;;;;;;5083256;28;20266;-90
2022/12/30 00:06:07;;;;;;;11.30;3.37;;;7.90;89.30;;;;;;5079811;28;20212;-89
2022/12/30 00:08:46;;;;;;;11.40;3.37;;;7.90;90.00;;;;;;5096830;28;20186;-89
2022/12/30 00:11:24;;;;;;;12.13;3.20;;;8.00;90.00;;;;;;5079034;28;20728;-89
2022/12/30 00:34:15;;;;;;;12.43;3.13;;;8.00;88.70;;;;;;5101834;28;20226;-88
2022/12/30 00:36:42;;;;;;;13.10;3.73;;;8.00;87.00;;;;;;5098737;28;20179;-89
2022/12/30 00:39:08;;;;;;;10.73;2.70;;;7.90;88.90;;;;;;5078601;28;20179;-90
2022/12/30 00:44:18;;;;;;;19.53;4.00;;;8.10;90.40;;;;;;5096403;28;20712;-89
2022/12/30 00:46:44;;;;;;;11.60;3.13;;;7.90;90.80;;;;;;5078020;28;20180;-90
2022/12/30 00:57:23;;;;;;;13.70;3.10;;;7.70;92.90;;;;;;5113188;28;20194;-90
2022/12/30 00:59:49;;;;;;;14.97;3.30;;;7.70;93.10;;;;;;5103723;28;20599;-89
2022/12/30 01:02:14;;;;;;;11.80;3.50;;;7.60;93.80;;;;;;5083891;28;20223;-89
2022/12/30 01:04:40;;;;;;;8.97;2.50;;;7.80;92.70;;;;;;5084324;28;20576;-89
2022/12/30 01:07:07;;;;;;;11.83;2.90;;;7.70;92.70;;;;;;5077800;28;20313;-89
2022/12/30 01:09:36;;;;;;;13.37;3.33;;;7.70;93.00;;;;;;5076936;28;20195;-88
2022/12/30 01:12:08;;;;;;;14.37;2.73;;;7.70;93.00;;;;;;5077106;28;20192;-88
2022/12/30 01:14:35;;;;;;;9.73;2.87;;;7.70;92.90;;;;;;5077125;28;20192;-88
2022/12/30 01:17:02;;;;;;;16.73;3.50;;;7.80;92.70;;;;;;5077062;28;20207;-88
2022/12/30 01:19:27;;;;;;;10.53;3.30;;;7.70;93.10;;;;;;5075581;28;20207;-88
2022/12/30 01:21:53;;;;;;;15.53;3.37;;;7.70;94.30;;;;;;5076680;28;20304;-88
2022/12/30 01:24:19;;;;;;;15.40;3.73;;;7.70;93.50;;;;;;5076808;28;20225;-89
2022/12/30 01:26:44;;;;;;;13.77;3.20;;;7.70;93.50;;;;;;5076760;28;20270;-89
2022/12/30 01:29:10;;;;;;;11.77;2.90;;;7.70;93.10;;;;;;5076880;28;20279;-88
2022/12/30 01:31:37;;;;;;;9.43;2.77;;;7.80;93.50;;;;;;5076844;28;20187;-88
2022/12/30 01:34:02;;;;;;;10.10;2.70;;;7.80;92.40;;;;;;5094853;28;20188;-89
2022/12/30 01:36:28;;;;;;;12.57;3.50;;;7.80;92.80;;;;;;5076752;28;20205;-89
2022/12/30 01:38:54;;;;;;;13.73;3.90;;;7.70;93.20;;;;;;5076689;28;20215;-89
2022/12/30 01:41:19;;;;;;;12.20;3.57;;;7.70;93.60;;;;;;5093480;28;20195;-89
2022/12/30 01:43:49;;;;;;;15.30;3.20;;;7.70;93.90;;;;;;5094084;28;20180;-89
2022/12/30 01:46:30;;;;;;;11.23;4.23;;;7.80;93.20;;;;;;5077245;28;20184;-88
2022/12/30 01:48:58;;;;;;;13.10;3.63;;;7.70;93.30;;;;;;5077838;28;20183;-88
2022/12/30 01:51:31;;;;;;;10.00;3.07;;;7.60;94.50;;;;;;5085397;28;20195;-89
2022/12/30 01:54:00;;;;;;;12.73;3.27;;;7.50;95.10;;;;;;5076496;28;20183;-88
2022/12/30 01:56:32;;;;;;;9.30;3.07;;;7.50;96.30;;;;;;5095120;28;20267;-88
2022/12/30 01:59:13;;;;;;;11.00;3.10;;;7.50;96.10;;;;;;5076974;28;20271;-88
2022/12/30 02:01:40;;;;;;;7.87;3.13;;;7.50;96.60;;;;;;5078360;28;20259;-90
2022/12/30 02:04:15;;;;;;;9.83;3.20;;;7.40;96.90;;;;;;5085942;28;20180;-88
2022/12/30 02:07:01;;;;;;;10.03;3.00;;;7.50;97.30;;;;;;5088574;28;20287;-88
2022/12/30 02:09:31;;;;;;;12.60;3.20;;;7.50;97.00;;;;;;5094365;28;20194;-88
2022/12/30 02:11:58;;;;;;;13.73;3.03;;;7.40;97.40;;;;;;5061213;28;20180;-87
2022/12/30 02:14:25;;;;;;;14.57;3.93;;;7.40;98.10;;;;;;5080263;28;20338;-89
2022/12/30 02:17:35;;;;;;;10.67;3.30;;;7.40;99.10;;;;;;5078651;28;20179;-88
2022/12/30 02:20:28;;;;;;;11.87;3.20;;;7.30;99.40;;;;;;5095399;28;20251;-87
2022/12/30 02:23:25;;;;;;;14.60;3.40;;;7.30;99.60;;;;;;5073293;28;20236;-88
2022/12/30 02:26:00;;;;;;;14.60;3.73;;;7.20;99.90;;;;;;5089451;28;20270;-88
2022/12/30 02:28:47;;;;;;;9.30;3.10;;;7.20;99.90;;;;;;5072837;28;20249;-87
2022/12/30 02:31:36;;;;;;;10.73;3.43;;;7.10;99.90;;;;;;5074173;28;20180;-88
2022/12/30 02:34:12;;;;;;;12.57;3.40;;;7.10;99.90;;;;;;5092638;28;20207;-88
2022/12/30 02:36:42;;;;;;;11.30;3.60;;;7.10;99.90;;;;;;5075994;28;20262;-87
2022/12/30 02:39:16;;;;;;;11.57;3.60;;;7.10;99.90;;;;;;5075556;28;20545;-89
2022/12/30 02:44:57;;;;;;;15.93;3.80;;;7.00;99.90;;;;;;5089565;28;20187;-89
2022/12/30 02:47:32;;;;;;;14.80;4.17;;;7.10;99.90;;;;;;5075392;28;20179;-89
2022/12/30 02:52:48;;;;;;;14.20;4.13;;;7.00;99.90;;;;;;5093840;28;20190;-88
2022/12/30 02:55:16;;;;;;;10.40;3.50;;;7.00;99.90;;;;;;5075318;28;20226;-89
2022/12/30 02:57:42;;;;;;;18.03;4.10;;;6.90;99.90;;;;;;5093268;28;20259;-89
2022/12/30 03:06:26;;;;;;;11.20;3.87;;;6.90;99.90;;;;;;5093635;28;20237;-89
2022/12/30 03:08:59;;;;;;;13.77;3.63;;;6.90;99.90;;;;;;5072284;28;20663;-90
2022/12/30 03:11:32;;;;;;;12.33;3.27;;;6.90;99.90;;;;;;5071538;28;20221;-89
2022/12/30 03:14:21;;;;;;;12.03;3.67;;;6.90;99.90;;;;;;5068007;28;20180;-89
2022/12/30 03:16:57;;;;;;;13.77;3.67;;;6.90;99.90;;;;;;5091688;28;20305;-90
2022/12/30 03:19:26;;;;;;;14.27;3.73;;;7.00;99.90;;;;;;5078811;28;20186;-89
2022/12/30 03:21:54;;;;;;;9.73;3.60;;;7.00;99.90;;;;;;5079124;28;20222;-90
2022/12/30 03:27:12;;;;;;;16.07;3.47;;;6.90;99.90;;;;;;5096999;28;20182;-89
2022/12/30 03:29:56;;;;;;;13.57;3.80;;;6.90;99.90;;;;;;5078881;28;20531;-90
2022/12/30 03:32:23;;;;;;;14.40;4.00;;;7.00;99.90;;;;;;5078611;28;20665;-89
2022/12/30 03:34:49;;;;;;;14.67;4.60;;;7.00;99.90;;;;;;5079016;28;20188;-89
2022/12/30 03:37:25;;;;;;;14.93;3.77;;;6.90;99.90;;;;;;5097044;28;20288;-89
2022/12/30 03:40:10;;;;;;;13.50;3.80;;;6.90;99.90;;;;;;5079255;28;20215;-88
2022/12/30 03:42:36;;;;;;;10.07;4.00;;;7.00;99.90;;;;;;5078941;28;20683;-87
2022/12/30 03:45:04;;;;;;;17.20;4.40;;;6.90;99.90;;;;;;5078519;28;20182;-88
2022/12/30 03:47:29;;;;;;;13.53;3.93;;;6.90;99.90;;;;;;5111981;28;20206;-89
2022/12/30 03:49:55;;;;;;;11.23;3.33;;;6.90;99.90;;;;;;5088637;28;20203;-88
2022/12/30 03:52:21;;;;;;;14.13;3.77;;;6.90;99.90;;;;;;5096428;28;20249;-88
2022/12/30 03:54:48;;;;;;;15.33;4.17;;;7.00;99.90;;;;;;5078669;28;20198;-89
2022/12/30 03:57:14;;;;;;;13.40;3.33;;;6.90;99.90;;;;;;5078396;28;20244;-89
2022/12/30 03:59:41;;;;;;;15.93;3.73;;;6.90;99.90;;;;;;5077878;28;20181;-88
2022/12/30 04:02:07;;;;;;;12.60;3.93;;;6.90;99.90;;;;;;5078055;28;20617;-87
2022/12/30 04:04:33;;;;;;;11.37;2.87;;;7.00;99.90;;;;;;5085225;28;20179;-88
2022/12/30 04:06:59;;;;;;;11.17;3.43;;;6.90;99.90;;;;;;5090239;28;20183;-88
2022/12/30 04:09:24;;;;;;;9.17;3.57;;;6.90;99.90;;;;;;5101171;28;20207;-87
2022/12/30 04:11:50;;;;;;;13.37;3.20;;;6.90;99.90;;;;;;5083194;28;20511;-87
2022/12/30 04:14:16;;;;;;;14.67;4.00;;;6.80;99.90;;;;;;5113307;28;20231;-88
2022/12/30 04:16:41;;;;;;;11.10;4.27;;;6.90;99.90;;;;;;5095291;28;20716;-89
2022/12/30 04:19:07;;;;;;;17.90;4.93;;;6.90;99.90;;;;;;5096746;28;20180;-88
2022/12/30 04:21:33;;;;;;;14.60;4.10;;;6.90;99.90;;;;;;5083184;28;20180;-88
2022/12/30 04:23:59;;;;;;;9.30;3.33;;;6.80;99.90;;;;;;5078364;28;20252;-88
2022/12/30 04:26:27;;;;;;;14.97;3.63;;;6.80;99.90;;;;;;5081519;28;20202;-88
2022/12/30 04:28:53;;;;;;;15.47;3.70;;;6.80;99.90;;;;;;5085672;28;20184;-87
2022/12/30 04:31:19;;;;;;;9.97;3.43;;;6.90;99.90;;;;;;5118168;28;20172;-87
2022/12/30 04:33:49;;;;;;;15.63;3.80;;;6.80;99.90;;;;;;5096389;28;20190;-87
2022/12/30 04:36:15;;;;;;;13.63;3.67;;;6.80;99.90;;;;;;5119045;28;20195;-87
2022/12/30 04:38:41;;;;;;;14.20;4.20;;;6.80;99.90;;;;;;5101242;28;20180;-86
2022/12/30 04:41:06;;;;;;;14.23;3.67;;;6.80;99.90;;;;;;5110312;28;20191;-88
2022/12/30 04:43:32;;;;;;;13.83;4.27;;;7.00;99.90;;;;;;5098746;28;20215;-88
2022/12/30 04:46:00;;;;;;;14.60;4.23;;;6.80;99.90;;;;;;5117368;28;20232;-88
2022/12/30 04:48:26;;;;;;;13.00;3.73;;;7.00;99.90;;;;;;5116448;28;20265;-88
2022/12/30 04:50:52;;;;;;;11.60;3.70;;;6.90;99.90;;;;;;5098345;28;20223;-88
2022/12/30 04:53:30;;;;;;;15.47;4.00;;;6.90;99.90;;;;;;5097451;28;20195;-88
2022/12/30 04:55:56;;;;;;;12.47;4.10;;;6.90;99.90;;;;;;5097853;28;20174;-87
2022/12/30 04:58:23;;;;;;;14.27;4.10;;;6.90;99.90;;;;;;5097057;28;20186;-87
2022/12/30 05:00:50;;;;;;;16.90;4.40;;;7.10;99.90;;;;;;5097242;28;20191;-88
2022/12/30 05:03:15;;;;;;;11.63;3.70;;;6.90;99.90;;;;;;5096611;28;20210;-88
2022/12/30 05:05:41;;;;;;;11.67;3.97;;;6.90;99.90;;;;;;5096667;28;20179;-88
2022/12/30 05:08:07;;;;;;;12.90;4.50;;;6.90;99.90;;;;;;5115282;28;20684;-87
2022/12/30 05:10:33;;;;;;;10.67;3.93;;;6.90;99.90;;;;;;5117147;28;20178;-87
2022/12/30 05:12:59;;;;;;;13.17;4.63;;;6.90;99.90;;;;;;5100834;28;20190;-89
2022/12/30 05:15:25;;;;;;;13.47;3.87;;;6.80;99.90;;;;;;5101111;28;20560;-90
2022/12/30 05:17:50;;;;;;;11.23;3.90;;;6.90;99.90;;;;;;5101222;28;20217;-87
2022/12/30 05:20:16;;;;;;;10.17;3.67;;;6.90;99.90;;;;;;5097436;28;20182;-87
2022/12/30 05:22:42;;;;;;;11.50;4.23;;;6.90;99.90;;;;;;5096721;28;20226;-88
2022/12/30 05:27:52;;;;;;;11.57;4.30;;;6.80;99.90;;;;;;5115106;28;20186;-88
2022/12/30 05:30:18;;;;;;;15.17;3.80;;;6.70;99.90;;;;;;5096808;28;20175;-87
2022/12/30 05:32:44;;;;;;;13.70;3.70;;;6.80;99.90;;;;;;5096727;28;20697;-88
2022/12/30 05:35:10;;;;;;;18.23;5.53;;;6.80;99.90;;;;;;5096792;28;20519;-89
2022/12/30 05:37:35;;;;;;;15.37;4.40;;;6.80;99.90;;;;;;5113908;28;20232;-88
2022/12/30 05:40:02;;;;;;;11.53;4.20;;;6.80;99.90;;;;;;5096097;28;20196;-87
2022/12/30 05:42:27;;;;;;;11.33;4.07;;;6.80;99.90;;;;;;5095453;28;20230;-87
2022/12/30 05:44:53;;;;;;;9.17;4.10;;;6.80;99.90;;;;;;5095796;28;20179;-87
2022/12/30 05:47:19;;;;;;;12.40;3.90;;;6.80;99.90;;;;;;5096268;28;20189;-87
2022/12/30 05:49:44;;;;;;;9.70;4.00;;;6.80;99.90;;;;;;5096363;28;20194;-87
2022/12/30 05:52:10;;;;;;;12.80;4.77;;;6.90;99.90;;;;;;5095651;28;20183;-87
2022/12/30 05:54:35;;;;;;;11.23;4.17;;;6.90;99.90;;;;;;5096542;28;20183;-88
2022/12/30 05:57:01;;;;;;;15.33;4.20;;;6.90;99.90;;;;;;5095909;28;20267;-86
2022/12/30 05:59:27;;;;;;;15.00;4.70;;;6.90;99.90;;;;;;5115231;28;20170;-86
2022/12/30 06:01:52;;;;;;;9.33;4.10;;;7.00;99.90;;;;;;5096644;28;20259;-89
2022/12/30 06:04:18;;;;;;;9.40;3.97;;;6.90;99.90;;;;;;5113256;28;20187;-85
2022/12/30 06:06:44;;;;;;;9.17;3.80;;;6.90;99.90;;;;;;5105904;28;20175;-87
2022/12/30 06:09:10;;;;;;;8.87;3.80;;;7.00;99.90;;;;;;5114348;28;20167;-86
2022/12/30 06:11:38;;;;;;;10.83;3.63;;;7.00;99.90;;;;;;5095329;28;20222;-87
2022/12/30 06:14:04;;;;;;;11.50;3.90;;;7.10;99.90;;;;;;5095907;28;20179;-87
2022/12/30 06:16:30;;;;;;;12.47;3.80;;;7.10;99.90;;;;;;5096130;28;20707;-87
2022/12/30 06:18:55;;;;;;;10.00;3.73;;;7.20;99.90;;;;;;5102577;28;20179;-86
2022/12/30 06:21:21;;;;;;;9.33;3.90;;;7.30;99.90;;;;;;5121013;28;20178;-87
2022/12/30 06:23:47;;;;;;;10.33;3.00;;;7.20;99.90;;;;;;5096312;28;20693;-88
2022/12/30 06:26:13;;;;;;;15.17;4.20;;;7.20;99.90;;;;;;5096857;28;20178;-87
2022/12/30 06:28:39;;;;;;;8.80;3.60;;;7.20;99.90;;;;;;5114778;28;20174;-89
2022/12/30 06:31:05;;;;;;;8.00;3.00;;;7.20;99.90;;;;;;5095894;28;20175;-86
2022/12/30 06:33:31;;;;;;;10.70;3.43;;;7.20;99.90;;;;;;5095612;28;20179;-86
2022/12/30 06:35:57;;;;;;;8.63;3.20;;;7.30;99.90;;;;;;5100707;28;20193;-88
2022/12/30 06:38:22;;;;;;;11.37;3.60;;;7.30;99.90;;;;;;5107323;28;20179;-88
2022/12/30 06:40:48;;;;;;;11.27;3.57;;;7.30;99.90;;;;;;5095973;28;20578;-88
2022/12/30 06:43:14;;;;;;;9.73;2.77;;;7.30;99.90;;;;;;5095855;28;20229;-88
2022/12/30 06:45:41;;;;;;;5.60;2.60;;;7.50;99.90;;;;;;5095957;28;20185;-87
2022/12/30 06:48:07;;;;;;;10.80;3.13;;;7.50;99.90;;;;;;5095896;28;20232;-87
2022/12/30 06:50:32;;;;;;;7.93;3.03;;;7.40;99.90;;;;;;5098447;28;20198;-88
2022/12/30 06:52:58;;;;;;;7.43;2.70;;;7.50;99.90;;;;;;5099554;28;20600;-87
2022/12/30 06:55:24;;;;;;;8.30;3.10;;;7.40;99.90;;;;;;5099620;28;20273;-87
2022/12/30 06:57:49;;;;;;;11.40;3.10;;;7.50;99.90;;;;;;5100285;28;20240;-87
2022/12/30 07:00:15;;;;;;;12.77;3.30;;;7.40;99.90;;;;;;5100431;28;20269;-86
2022/12/30 07:02:41;;;;;;;8.43;2.73;;;7.40;99.90;;;;;;5117532;28;20294;-86
2022/12/30 07:05:08;;;;;;;11.00;2.87;;;7.40;99.90;;;;;;5099469;28;20270;-88
2022/12/30 07:07:34;;;;;;;7.37;3.23;;;7.50;99.90;;;;;;5098753;28;20210;-89
2022/12/30 07:10:00;;;;;;;8.10;2.93;;;7.40;99.90;;;;;;5098471;28;20224;-87
2022/12/30 07:12:25;;;;;;;10.20;3.03;;;7.50;99.90;;;;;;5098588;28;20183;-89
2022/12/30 07:14:51;;;;;;;9.33;3.17;;;7.50;99.90;;;;;;5099455;28;20549;-88
2022/12/30 07:17:17;;;;;;;7.30;3.00;;;7.70;99.90;;;;;;5100354;28;20183;-88
2022/12/30 07:19:43;;;;;;;9.50;3.03;;;7.60;99.90;;;;;;5099573;28;20195;-88
2022/12/30 07:22:09;;;;;;;7.27;3.27;;;7.50;99.90;;;;;;5098799;28;20221;-88
2022/12/30 07:24:34;;;;;;;5.40;3.00;;;7.50;99.90;;;;;;5098568;28;20179;-89
2022/12/30 07:27:00;;;;;;;6.47;2.50;;;7.60;99.90;;;;;;5098481;28;20183;-89
2022/12/30 07:29:26;;;;;;;9.20;2.80;;;7.60;99.90;;;;;;5098841;28;20179;-87
2022/12/30 07:31:51;;;;;;;9.40;2.33;;;7.60;99.90;;;;;;5099681;28;20624;-89
2022/12/30 07:34:17;;;;;;;8.30;2.63;;;7.60;99.90;;;;;;5099530;28;20186;-91
2022/12/30 07:36:43;;;;;;;6.97;2.87;;;7.60;99.90;;;;;;5100683;28;20598;-91
2022/12/30 07:39:08;;;;;;;8.33;3.23;;;7.60;99.90;;;;;;5083944;28;20184;-92
2022/12/30 07:41:34;;;;;;;6.30;2.70;;;7.60;99.90;;;;;;5076632;28;20380;-88
2022/12/30 07:44:00;;;;;;;5.57;2.27;;;7.70;99.90;;;;;;5077193;28;20184;-90
2022/12/30 07:46:26;;;;;;;6.00;2.67;;;7.80;99.90;;;;;;5075375;28;20180;-90
2022/12/30 07:48:51;;;;;;;11.47;2.70;;;7.70;99.90;;;;;;5075458;28;20188;-90
2022/12/30 07:51:18;;;;;;;6.30;2.40;;;7.70;99.90;;;;;;5075569;28;20306;-90
2022/12/30 07:53:44;;;;;;;7.97;3.13;;;7.70;99.90;;;;;;5076931;28;20192;-90
2022/12/30 07:56:11;;;;;;;6.77;2.97;;;7.90;99.90;;;;;;5075555;28;20291;-90
2022/12/30 07:58:38;;;;;;;6.83;3.10;;;7.70;99.90;;;;;;5076310;28;20172;-92
2022/12/30 08:01:09;;;;;;;7.13;2.80;;;7.80;99.90;;;;;;5073866;28;20219;-90
2022/12/30 08:03:35;;;;;;;10.40;2.77;;;7.80;99.90;;;;;;5075318;28;20289;-91
2022/12/30 08:06:12;;;;;;;8.63;2.90;;;7.70;99.90;;;;;;5067438;28;20172;-88
2022/12/30 08:08:38;;;;;;;7.37;2.37;;;7.80;99.90;;;;;;5075535;28;20204;-88
2022/12/30 08:11:05;;;;;;;9.27;2.50;;;7.80;99.90;;;;;;5087319;28;20180;-88
2022/12/30 08:13:33;;;;;;;9.60;2.67;;;7.70;99.90;;;;;;5082089;28;20259;-89
2022/12/30 08:15:59;;;;;;;5.67;2.30;;;7.70;99.90;;;;;;5077363;28;20268;-89
2022/12/30 08:18:26;;;;;;;9.83;3.10;;;7.90;99.90;;;;;;5081923;28;20214;-89
2022/12/30 08:20:52;;;;;;;6.73;2.80;;;7.90;99.90;;;;;;5085769;28;20191;-92
2022/12/30 08:23:17;;;;;;;6.10;2.60;;;7.90;99.90;;;;;;5087564;28;20228;-89
2022/12/30 08:25:44;;;;;;;6.97;2.90;;;7.90;99.90;;;;;;5095261;28;20194;-89
2022/12/30 08:28:10;;;;;;;8.13;2.30;;;7.90;99.90;;;;;;5085709;28;20180;-90
2022/12/30 08:30:44;;;;;;;8.93;2.40;;;8.00;99.90;;;;;;5076670;28;20216;-88
2022/12/30 08:33:10;;;;;;;4.17;2.03;;;8.00;99.90;;;;;;5059119;28;20690;-91
2022/12/30 08:35:35;;;;;;;4.63;2.07;;;8.00;99.90;;;;;;5074423;28;20177;-89
2022/12/30 08:38:01;;;;;;;5.43;2.03;;;8.00;99.90;;;;;;5075217;28;20271;-90
2022/12/30 08:40:27;;;;;;;8.63;2.47;;;8.10;99.90;;;;;;5075042;28;20176;-89
2022/12/30 08:42:54;;;;;;;7.33;2.33;;;8.00;99.90;;;;;;5076202;28;20227;-90
2022/12/30 08:45:21;;;;;;;6.00;2.30;;;8.10;99.90;;;;;;5075326;28;20185;-91
2022/12/30 08:47:47;;;;;;;7.23;2.40;;;8.20;99.90;;;;;;5054876;28;20187;-88
2022/12/30 08:50:14;;;;;;;6.07;1.93;;;8.10;99.90;;;;;;5081688;28;20211;-90
2022/12/30 08:52:40;;;;;;;5.40;1.87;;;8.20;99.90;;;;;;5062578;28;20196;-89
2022/12/30 08:55:06;;;;;;;8.67;1.97;;;8.20;99.90;;;;;;5058041;28;20271;-90
2022/12/30 08:57:31;;;;;;;10.73;2.30;;;8.30;99.90;;;;;;5057806;28;20181;-89
2022/12/30 08:59:57;;;;;;;9.23;2.53;;;8.30;99.90;;;;;;5059447;28;20195;-89
2022/12/30 09:02:22;;;;;;;5.63;2.00;;;8.40;99.90;;;;;;5080867;28;20241;-90
2022/12/30 09:04:49;;;;;;;10.57;2.57;;;8.40;99.90;;;;;;5100692;28;20183;-89
2022/12/30 09:07:15;;;;;;;6.93;2.27;;;8.50;99.90;;;;;;5100970;28;20183;-89
2022/12/30 09:09:41;;;;;;;8.00;2.00;;;8.50;99.90;;;;;;5098217;28;20175;-88
2022/12/30 09:12:07;;;;;;;7.17;2.10;;;8.60;99.90;;;;;;5098108;28;20292;-88
2022/12/30 09:14:33;;;;;;;6.13;2.27;;;8.70;99.90;;;;;;5098070;28;20210;-90
2022/12/30 09:16:58;;;;;;;6.47;1.70;;;8.60;99.90;;;;;;5099708;28;20202;-87
2022/12/30 09:19:24;;;;;;;9.83;2.10;;;8.70;99.90;;;;;;5103938;28;20186;-90
2022/12/30 09:21:51;;;;;;;7.23;2.00;;;8.70;99.90;;;;;;5104479;28;20215;-90
2022/12/30 09:24:17;;;;;;;5.83;2.37;;;8.80;99.90;;;;;;5120391;28;20181;-90
2022/12/30 09:26:43;;;;;;;5.57;2.73;;;8.80;99.90;;;;;;5100641;28;20179;-89
2022/12/30 09:29:10;;;;;;;11.53;2.20;;;8.80;99.90;;;;;;5099764;28;20190;-89
2022/12/30 09:31:35;;;;;;;9.33;2.20;;;8.80;99.90;;;;;;5099186;28;20774;-89
2022/12/30 09:34:01;;;;;;;6.77;2.43;;;8.90;99.90;;;;;;5099093;28;20221;-89
2022/12/30 09:36:27;;;;;;;8.73;2.10;;;8.90;99.90;;;;;;5116127;28;20199;-89
2022/12/30 09:38:53;;;;;;;10.13;2.27;;;8.90;99.90;;;;;;5111510;28;20183;-89
2022/12/30 09:45:04;;;;;;;6.67;1.97;;;8.90;99.20;;;;;;5124419;28;20201;-92
2022/12/30 09:47:40;;;;;;;7.20;1.97;;;9.00;99.30;;;;;;5109367;28;20182;-90
2022/12/30 09:50:18;;;;;;;9.07;1.93;;;9.00;99.20;;;;;;5106181;28;20209;-89
2022/12/30 09:53:09;;;;;;;9.73;2.67;;;9.10;98.60;;;;;;5097987;28;20221;-89
2022/12/30 09:55:50;;;;;;;6.80;2.43;;;9.10;98.40;;;;;;5098216;28;20193;-89
2022/12/30 09:58:29;;;;;;;9.33;2.70;;;9.10;98.70;;;;;;5098039;28;20542;-87
2022/12/30 10:01:04;;;;;;;10.97;2.07;;;9.10;98.80;;;;;;5110436;28;20178;-88
2022/12/30 10:03:30;;;;;;;10.83;2.70;;;9.20;99.00;;;;;;5110845;28;20285;-90
2022/12/30 10:06:22;;;;;;;5.33;1.93;;;9.10;98.90;;;;;;5110732;28;20202;-87
2022/12/30 10:09:26;;;;;;;6.00;2.07;;;9.10;99.40;;;;;;5118409;28;20167;-88
2022/12/30 10:12:14;;;;;;;7.07;2.10;;;9.20;99.40;;;;;;5113298;28;20204;-88
2022/12/30 10:14:58;;;;;;;7.03;2.50;;;9.20;99.50;;;;;;5070497;28;20181;-88
2022/12/30 10:17:49;;;;;;;8.07;2.20;;;9.20;99.20;;;;;;5072999;28;20175;-88
2022/12/30 10:20:55;;;;;;;9.47;2.30;;;9.20;99.20;;;;;;5043184;28;20644;-88
2022/12/30 10:23:45;;;;;;;10.40;2.93;;;9.30;99.30;;;;;;5056811;28;20269;-89
2022/12/30 10:26:19;;;;;;;12.43;2.77;;;9.30;98.70;;;;;;5058370;28;20195;-87
2022/12/30 10:29:13;;;;;;;8.83;2.63;;;9.40;98.30;;;;;;5056728;28;20186;-86
2022/12/30 10:31:40;;;;;;;6.63;2.40;;;9.60;97.50;;;;;;5068570;28;20202;-86
2022/12/30 10:34:12;;;;;;;7.97;2.10;;;9.60;97.10;;;;;;5064409;28;20224;-87
2022/12/30 10:36:44;;;;;;;11.83;2.13;;;9.50;96.70;;;;;;5058396;28;20210;-88
2022/12/30 10:39:22;;;;;;;7.70;2.13;;;9.60;96.10;;;;;;5092617;28;20202;-87
2022/12/30 10:42:02;;;;;;;7.80;2.63;;;9.70;95.70;;;;;;5088210;28;20222;-87
2022/12/30 10:45:12;;;;;;;6.70;2.43;;;9.80;94.70;;;;;;5113589;28;20183;-87
2022/12/30 10:48:20;;;;;;;6.90;1.87;;;9.80;94.20;;;;;;5054920;28;20208;-87
2022/12/30 10:50:48;;;;;;;7.90;2.00;;;9.80;93.70;;;;;;5062348;28;20204;-87
2022/12/30 10:53:20;;;;;;;10.40;2.60;;;9.90;93.10;;;;;;5061408;28;20189;-85
2022/12/30 10:56:24;;;;;;;10.83;3.50;;;10.00;92.50;;;;;;5079643;28;20184;-88
2022/12/30 10:58:52;;;;;;;9.07;2.10;;;10.00;91.50;;;;;;5093971;28;20223;-91
2022/12/30 11:01:20;;;;;;;8.47;2.20;;;10.10;91.80;;;;;;5067111;28;20601;-87
2022/12/30 11:03:52;;;;;;;5.87;2.40;;;10.00;91.90;;;;;;5081502;28;20224;-88
2022/12/30 11:06:26;;;;;;;4.77;1.90;;;10.00;92.70;;;;;;5093857;28;20183;-86
2022/12/30 11:09:13;;;;;;;10.07;3.03;;;10.00;92.80;;;;;;5081734;28;20681;-87
2022/12/30 11:14:44;;;;;;;9.17;3.97;;;10.00;94.60;;;;;;5099970;28;20217;-86
2022/12/30 11:17:22;;;;;;;3.40;1.77;;;10.00;96.00;;;;;;5105433;28;20183;-89
2022/12/30 11:20:05;;;;;;;8.20;1.90;;;9.90;97.10;;;;;;5101381;28;20251;-85
2022/12/30 11:22:33;;;;;;;5.00;1.50;;;9.90;98.60;;;;;;5085478;28;20283;-85
2022/12/30 11:25:03;;;;;;;3.40;1.30;;;9.90;99.90;;;;;;5094342;28;20176;-84
2022/12/30 11:27:46;;;;;;;7.03;1.67;;;9.80;99.90;;;;;;5102465;28;20623;-88
2022/12/30 11:31:02;;;;;;;6.13;1.90;;;9.80;99.90;;;;;;5104200;28;20171;-87
2022/12/30 11:33:45;;;;;;;4.27;1.57;;;9.70;99.90;;;;;;5115254;28;20188;-88
2022/12/30 11:36:14;;;;;;;3.93;1.40;;;9.70;99.90;;;;;;5105884;28;20176;-86
2022/12/30 11:38:49;;;;;;;5.73;1.57;;;9.70;99.90;;;;;;5107518;28;20191;-87
2022/12/30 11:41:28;;;;;;;4.20;1.57;;;9.60;99.90;;;;;;5109233;28;20203;-87
2022/12/30 11:44:10;;;;;;;7.60;1.97;;;9.60;99.90;;;;;;5103410;28;20556;-87
2022/12/30 11:46:43;;;;;;;5.77;1.80;;;9.60;99.90;;;;;;5082276;28;20190;-88
2022/12/30 11:49:34;;;;;;;3.87;1.80;;;9.70;99.90;;;;;;5085194;28;20660;-86
2022/12/30 11:52:09;;;;;;;5.10;1.47;;;9.70;99.90;;;;;;5084839;28;20177;-86
2022/12/30 11:54:52;;;;;;;4.10;1.60;;;9.60;99.90;;;;;;5076566;28;20187;-85
2022/12/30 11:57:25;;;;;;;4.97;1.30;;;9.60;99.90;;;;;;5095109;28;20188;-87
2022/12/30 11:59:55;;;;;;;5.73;2.00;;;9.60;99.90;;;;;;5096908;28;20184;-85
2022/12/30 12:02:30;;;;;;;6.47;1.70;;;9.50;99.90;;;;;;5080610;28;20578;-88
2022/12/30 12:04:56;;;;;;;3.30;1.43;;;9.50;99.90;;;;;;5109127;28;20188;-89
2022/12/30 12:07:31;;;;;;;3.60;1.27;;;9.60;99.90;;;;;;5109249;28;20172;-88
2022/12/30 12:10:34;;;;;;;3.23;1.23;;;9.60;99.90;;;;;;5072245;28;20164;-88
2022/12/30 12:13:06;;;;;;;4.67;2.00;;;9.60;99.90;;;;;;5091329;28;20188;-88
2022/12/30 12:15:56;;;;;;;3.43;1.60;;;9.60;99.90;;;;;;5073390;28;20168;-86
2022/12/30 12:18:39;;;;;;;4.33;1.17;;;9.70;99.90;;;;;;5104382;28;20169;-87
2022/12/30 12:21:08;;;;;;;2.97;1.50;;;9.80;99.90;;;;;;5098520;28;20180;-87
2022/12/30 12:24:08;;;;;;;4.63;1.80;;;9.80;99.90;;;;;;5080567;28;20254;-87
2022/12/30 12:26:44;;;;;;;2.67;1.50;;;9.70;99.90;;;;;;5095348;28;20175;-86
2022/12/30 12:29:13;;;;;;;3.30;1.37;;;9.70;99.90;;;;;;5088483;28;20202;-88
2022/12/30 12:32:16;;;;;;;2.90;1.23;;;9.80;99.90;;;;;;5098516;28;20187;-88
2022/12/30 12:35:21;;;;;;;2.40;1.30;;;9.70;99.90;;;;;;5104195;28;20206;-87
2022/12/30 12:37:55;;;;;;;3.10;1.33;;;9.70;99.90;;;;;;5095841;28;20183;-88
2022/12/30 12:40:37;;;;;;;2.93;1.10;;;9.70;99.90;;;;;;5091488;28;20179;-87
2022/12/30 12:43:34;;;;;;;2.53;1.20;;;9.70;99.90;;;;;;5097531;28;20224;-87
2022/12/30 12:46:24;;;;;;;2.73;1.17;;;9.70;99.90;;;;;;5089157;28;20172;-87
2022/12/30 12:49:13;;;;;;;3.20;1.20;;;9.70;99.90;;;;;;5087525;28;20175;-86
2022/12/30 12:52:09;;;;;;;3.77;1.10;;;9.70;99.90;;;;;;5083989;28;20203;-87
2022/12/30 12:55:19;;;;;;;2.67;1.20;;;9.70;99.90;;;;;;5083367;28;20172;-87
2022/12/30 12:58:07;;;;;;;2.97;1.10;;;9.70;99.90;;;;;;5032517;28;20184;-88
2022/12/30 13:00:47;;;;;;;1.40;0.90;;;9.70;99.90;;;;;;5087905;28;20179;-88
2022/12/30 13:03:49;;;;;;;2.47;1.10;;;9.70;99.90;;;;;;5084250;28;20219;-86
2022/12/30 13:06:38;;;;;;;2.00;1.00;;;9.70;99.90;;;;;;4998960;28;20529;-88
2022/12/30 13:09:38;;;;;;;2.97;1.10;;;9.80;99.90;;;;;;5081614;28;20177;-86
2022/12/30 13:12:40;;;;;;;2.13;1.17;;;9.80;99.90;;;;;;5080783;28;20173;-87
2022/12/30 13:15:26;;;;;;;2.10;1.17;;;9.80;99.90;;;;;;5055964;28;20573;-85
2022/12/30 13:17:54;;;;;;;3.97;0.97;;;9.80;99.90;;;;;;5089979;28;20222;-86
2022/12/30 13:20:26;;;;;;;4.17;1.37;;;9.90;99.90;;;;;;5089485;28;20180;-86
2022/12/30 13:22:52;;;;;;;1.60;1.20;;;9.90;99.90;;;;;;5086012;28;20220;-87
2022/12/30 13:25:27;;;;;;;2.13;1.03;;;10.10;99.90;;;;;;5084427;28;20622;-86
2022/12/30 13:27:56;;;;;;;2.00;0.90;;;10.10;99.90;;;;;;5065532;28;20180;-87
2022/12/30 13:30:36;;;;;;;2.43;0.90;;;10.20;99.90;;;;;;5095003;28;20183;-87
2022/12/30 13:33:28;;;;;;;1.40;1.10;;;10.20;99.90;;;;;;5090460;28;20182;-89
2022/12/30 13:36:15;;;;;;;1.67;1.00;;;10.30;99.90;;;;;;5093804;28;20175;-89
2022/12/30 13:39:11;;;;;;;1.83;0.70;;;10.30;99.90;;;;;;5106192;28;20225;-87
2022/12/30 13:41:36;;;;;;;1.73;0.70;;;10.30;99.90;;;;;;5091399;28;20202;-88
2022/12/30 13:44:20;;;;;;;1.00;0.73;;;10.50;99.90;;;;;;5105038;28;20211;-89
2022/12/30 13:46:49;;;;;;;1.63;0.80;;;10.50;99.90;;;;;;5108432;28;20217;-88
2022/12/30 13:49:26;;;;;;;0.60;0.50;;;10.60;99.90;;;;;;5084072;28;20191;-87
2022/12/30 13:52:00;;;;;;;0.93;0.63;;;10.70;99.90;;;;;;5102607;28;20198;-86
2022/12/30 13:54:33;;;;;;;8.93;4.13;;;10.70;99.90;;;;;;5107827;28;20189;-86
2022/12/30 13:57:02;;;;;;;4.97;3.00;;;10.70;99.90;;;;;;5102688;28;20180;-86
2022/12/30 13:59:37;;;;;;;4.50;1.80;;;10.70;99.90;;;;;;5088202;28;20179;-86
2022/12/30 14:02:19;;;;;;;7.50;3.70;;;10.60;99.90;;;;;;5085249;28;20238;-89
2022/12/30 14:04:56;;;;;;;4.50;2.03;;;10.70;99.90;;;;;;5104660;28;20187;-86
2022/12/30 14:07:43;;;;;;;3.70;1.80;;;10.70;99.90;;;;;;5085382;28;20183;-87
2022/12/30 14:10:14;;;;;;;3.53;1.47;;;10.70;99.90;;;;;;5100844;28;20218;-85
2022/12/30 14:12:42;;;;;;;1.63;0.80;;;10.80;99.90;;;;;;5101416;28;20577;-90